sensor_id;sensor_type;location;lat;lon;timestamp;pressure;altitude;pressure_sealevel;temperature;humidity
6899;BME280;3488;42.616;23.350;2022-10-16T00:01:52;62854.88;;;8.28;100.00
6899;BME280;3488;42.616;23.350;2022-10-16T00:04:19;62862.56;;;8.33;100.00
6899;BME280;3488;42.616;23.350;2022-10-16T00:06:46;62852.34;;;8.28;100.00
6899;BME280;3488;42.616;23.350;2022-10-16T00:09:14;62846.69;;;8.25;100.00
6899;BME280;3488;42.616;23.350;2022-10-16T00:11:41;62842.09;;;8.23;100.00
6899;BME280;3488;42.616;23.350;2022-10-16T00:14:11;62845.66;;;8.24;100.00
6899;BME280;3488;42.616;23.350;2022-10-16T00:16:38;62842.50;;;8.18;100.00
6899;BME280;3488;42.616;23.350;2022-10-16T00:19:06;62839.41;;;8.15;100.00
6899;BME280;3488;42.616;23.350;2022-10-16T00:21:33;62828.03;;;8.04;100.00
6899;BME280;3488;42.616;23.350;2022-10-16T00:24:02;62832.69;;;8.09;100.00
6899;BME280;3488;42.616;23.350;2022-10-16T00:26:33;62834.75;;;8.11;100.00
6899;BME280;3488;42.616;23.350;2022-10-16T00:29:00;62831.19;;;8.10;100.00
6899;BME280;3488;42.616;23.350;2022-10-16T00:31:27;62827.09;;;8.08;100.00
6899;BME280;3488;42.616;23.350;2022-10-16T00:33:55;62826.47;;;8.00;100.00
6899;BME280;3488;42.616;23.350;2022-10-16T00:36:23;62820.25;;;7.94;100.00
6899;BME280;3488;42.616;23.350;2022-10-16T00:38:52;62821.78;;;7.96;100.00
6899;BME280;3488;42.616;23.350;2022-10-16T00:41:21;62818.19;;;7.92;100.00
6899;BME280;3488;42.616;23.350;2022-10-16T00:43:51;62816.16;;;7.93;100.00
6899;BME280;3488;42.616;23.350;2022-10-16T00:46:20;62816.16;;;7.93;100.00
6899;BME280;3488;42.616;23.350;2022-10-16T00:48:51;62777.97;;;7.56;100.00
6899;BME280;3488;42.616;23.350;2022-10-16T00:51:21;62819.78;;;7.96;100.00
6899;BME280;3488;42.616;23.350;2022-10-16T00:53:50;62823.88;;;7.98;100.00
6899;BME280;3488;42.616;23.350;2022-10-16T00:56:17;62827.47;;;8.01;100.00
6899;BME280;3488;42.616;23.350;2022-10-16T00:58:44;62823.94;;;8.03;100.00
6899;BME280;3488;42.616;23.350;2022-10-16T01:01:13;62822.41;;;8.01;100.00
6899;BME280;3488;42.616;23.350;2022-10-16T01:03:39;62825.97;;;8.02;100.00
6899;BME280;3488;42.616;23.350;2022-10-16T01:06:20;62823.91;;;8.00;100.00
6899;BME280;3488;42.616;23.350;2022-10-16T01:08:57;62819.31;;;7.98;100.00
6899;BME280;3488;42.616;23.350;2022-10-16T01:11:32;62823.88;;;7.98;100.00
6899;BME280;3488;42.616;23.350;2022-10-16T01:14:07;62818.19;;;7.92;100.00
6899;BME280;3488;42.616;23.350;2022-10-16T01:16:42;62809.47;;;7.86;100.00
6899;BME280;3488;42.616;23.350;2022-10-16T01:19:14;62806.38;;;7.83;100.00
6899;BME280;3488;42.616;23.350;2022-10-16T01:21:45;62799.19;;;7.79;100.00
6899;BME280;3488;42.616;23.350;2022-10-16T01:24:17;62808.84;;;7.81;100.00
6899;BME280;3488;42.616;23.350;2022-10-16T01:27:11;62808.78;;;7.78;100.00
6899;BME280;3488;42.616;23.350;2022-10-16T01:29:42;62798.16;;;7.78;100.00
6899;BME280;3488;42.616;23.350;2022-10-16T01:32:16;62794.94;;;7.70;100.00
6899;BME280;3488;42.616;23.350;2022-10-16T01:34:49;62789.38;;;7.69;100.00
6899;BME280;3488;42.616;23.350;2022-10-16T01:37:22;62786.25;;;7.66;100.00
6899;BME280;3488;42.616;23.350;2022-10-16T01:39:55;62787.25;;;7.65;100.00
6899;BME280;3488;42.616;23.350;2022-10-16T01:42:28;62792.38;;;7.67;100.00
6899;BME280;3488;42.616;23.350;2022-10-16T01:44:58;62789.28;;;7.64;100.00
6899;BME280;3488;42.616;23.350;2022-10-16T01:47:30;62780.03;;;7.58;100.00
6899;BME280;3488;42.616;23.350;2022-10-16T01:49:59;62785.72;;;7.63;100.00
6899;BME280;3488;42.616;23.350;2022-10-16T01:52:30;62780.13;;;7.63;100.00
6899;BME280;3488;42.616;23.350;2022-10-16T01:54:59;62783.13;;;7.61;100.00
6899;BME280;3488;42.616;23.350;2022-10-16T01:57:31;62783.13;;;7.61;100.00
6899;BME280;3488;42.616;23.350;2022-10-16T02:00:02;62774.91;;;7.55;100.00
6899;BME280;3488;42.616;23.350;2022-10-16T02:02:30;62770.25;;;7.51;100.00
6899;BME280;3488;42.616;23.350;2022-10-16T02:05:02;62767.13;;;7.45;100.00
6899;BME280;3488;42.616;23.350;2022-10-16T02:07:29;62769.19;;;7.47;100.00
6899;BME280;3488;42.616;23.350;2022-10-16T02:09:56;62770.75;;;7.49;100.00
6899;BME280;3488;42.616;23.350;2022-10-16T02:12:27;62761.50;;;7.42;100.00
6899;BME280;3488;42.616;23.350;2022-10-16T02:14:56;62773.28;;;7.49;100.00
6899;BME280;3488;42.616;23.350;2022-10-16T02:17:23;62771.22;;;7.47;100.00
6899;BME280;3488;42.616;23.350;2022-10-16T02:19:52;62767.09;;;7.43;100.00
6899;BME280;3488;42.616;23.350;2022-10-16T02:22:23;62769.66;;;7.45;100.00
6899;BME280;3488;42.616;23.350;2022-10-16T02:24:56;62764.59;;;7.45;100.00
6899;BME280;3488;42.616;23.350;2022-10-16T02:27:27;62761.50;;;7.42;100.00
6899;BME280;3488;42.616;23.350;2022-10-16T02:30:03;62777.88;;;7.51;100.00
6899;BME280;3488;42.616;23.350;2022-10-16T02:32:34;62766.63;;;7.45;100.00
6899;BME280;3488;42.616;23.350;2022-10-16T02:35:03;62771.25;;;7.49;100.00
6899;BME280;3488;42.616;23.350;2022-10-16T02:37:31;62764.03;;;7.42;100.00
6899;BME280;3488;42.616;23.350;2022-10-16T02:39:58;62772.28;;;7.50;100.00
6899;BME280;3488;42.616;23.350;2022-10-16T02:42:29;62766.16;;;7.47;100.00
6899;BME280;3488;42.616;23.350;2022-10-16T02:45:00;62767.19;;;7.48;100.00
6899;BME280;3488;42.616;23.350;2022-10-16T02:47:27;62770.22;;;7.48;100.00
6899;BME280;3488;42.616;23.350;2022-10-16T02:49:55;62765.59;;;7.44;100.00
6899;BME280;3488;42.616;23.350;2022-10-16T02:52:22;62759.94;;;7.41;100.00
6899;BME280;3488;42.616;23.350;2022-10-16T02:54:49;62761.94;;;7.38;100.00
6899;BME280;3488;42.616;23.350;2022-10-16T02:57:17;62766.09;;;7.44;100.00
6899;BME280;3488;42.616;23.350;2022-10-16T02:59:44;62765.47;;;7.39;100.00
6899;BME280;3488;42.616;23.350;2022-10-16T03:02:13;62759.38;;;7.38;100.00
6899;BME280;3488;42.616;23.350;2022-10-16T03:04:39;62761.31;;;7.32;100.00
6899;BME280;3488;42.616;23.350;2022-10-16T03:07:06;62750.09;;;7.29;100.00
6899;BME280;3488;42.616;23.350;2022-10-16T03:09:33;62754.28;;;7.35;100.00
6899;BME280;3488;42.616;23.350;2022-10-16T03:12:00;62757.22;;;7.31;100.00
6899;BME280;3488;42.616;23.350;2022-10-16T03:14:27;62753.19;;;7.32;100.00
6899;BME280;3488;42.616;23.350;2022-10-16T03:16:53;62753.72;;;7.32;100.00
6899;BME280;3488;42.616;23.350;2022-10-16T03:19:22;62752.59;;;7.26;100.00
6899;BME280;3488;42.616;23.350;2022-10-16T03:21:49;62745.50;;;7.27;100.00
6899;BME280;3488;42.616;23.350;2022-10-16T03:24:15;62748.97;;;7.23;100.00
6899;BME280;3488;42.616;23.350;2022-10-16T03:26:42;62740.88;;;7.22;100.00
6899;BME280;3488;42.616;23.350;2022-10-16T03:29:09;62744.94;;;7.24;100.00
6899;BME280;3488;42.616;23.350;2022-10-16T03:31:36;62731.06;;;7.13;100.00
6899;BME280;3488;42.616;23.350;2022-10-16T03:34:03;62740.69;;;7.12;100.00
6899;BME280;3488;42.616;23.350;2022-10-16T03:36:31;62738.25;;;7.17;100.00
6899;BME280;3488;42.616;23.350;2022-10-16T03:38:58;62731.44;;;7.06;100.00
6899;BME280;3488;42.616;23.350;2022-10-16T03:41:25;62727.72;;;6.97;100.00
6899;BME280;3488;42.616;23.350;2022-10-16T03:43:52;62707.34;;;6.89;100.00
6899;BME280;3488;42.616;23.350;2022-10-16T03:46:19;62714.50;;;6.94;100.00
6899;BME280;3488;42.616;23.350;2022-10-16T03:48:45;62714.50;;;6.94;100.00
6899;BME280;3488;42.616;23.350;2022-10-16T03:51:12;62702.66;;;6.82;100.00
6899;BME280;3488;42.616;23.350;2022-10-16T03:53:40;62697.44;;;6.75;100.00
6899;BME280;3488;42.616;23.350;2022-10-16T03:56:07;62694.91;;;6.75;100.00
6899;BME280;3488;42.616;23.350;2022-10-16T03:58:34;62696.94;;;6.74;100.00
6899;BME280;3488;42.616;23.350;2022-10-16T04:01:01;62699.50;;;6.77;100.00
6899;BME280;3488;42.616;23.350;2022-10-16T04:03:28;62687.75;;;6.70;100.00
6899;BME280;3488;42.616;23.350;2022-10-16T04:05:55;62683.00;;;6.61;100.00
6899;BME280;3488;42.616;23.350;2022-10-16T04:08:22;62676.81;;;6.55;100.00
6899;BME280;3488;42.616;23.350;2022-10-16T04:10:50;62686.09;;;6.64;100.00
6899;BME280;3488;42.616;23.350;2022-10-16T04:13:17;62670.13;;;6.48;100.00
6899;BME280;3488;42.616;23.350;2022-10-16T04:15:44;62667.03;;;6.45;100.00
6899;BME280;3488;42.616;23.350;2022-10-16T04:18:11;62661.38;;;6.42;100.00
6899;BME280;3488;42.616;23.350;2022-10-16T04:20:39;62665.00;;;6.46;100.00
6899;BME280;3488;42.616;23.350;2022-10-16T04:23:05;62665.06;;;6.48;100.00
6899;BME280;3488;42.616;23.350;2022-10-16T04:25:32;62667.53;;;6.46;100.00
6899;BME280;3488;42.616;23.350;2022-10-16T04:28:00;62659.84;;;6.41;100.00
6899;BME280;3488;42.616;23.350;2022-10-16T04:30:27;62659.81;;;6.38;100.00
6899;BME280;3488;42.616;23.350;2022-10-16T04:32:54;62659.28;;;6.38;100.00
6899;BME280;3488;42.616;23.350;2022-10-16T04:35:21;62664.38;;;6.40;100.00
6899;BME280;3488;42.616;23.350;2022-10-16T04:37:48;62668.03;;;6.46;100.00
6899;BME280;3488;42.616;23.350;2022-10-16T04:40:16;62665.06;;;6.48;100.00
6899;BME280;3488;42.616;23.350;2022-10-16T04:42:43;62671.13;;;6.49;100.00
6899;BME280;3488;42.616;23.350;2022-10-16T04:45:11;62660.41;;;6.44;100.00
6899;BME280;3488;42.616;23.350;2022-10-16T04:47:38;62667.06;;;6.48;100.00
6899;BME280;3488;42.616;23.350;2022-10-16T04:50:05;62662.47;;;6.46;100.00
6899;BME280;3488;42.616;23.350;2022-10-16T04:52:32;62667.03;;;6.45;100.00
6899;BME280;3488;42.616;23.350;2022-10-16T04:54:59;62672.09;;;6.45;100.00
6899;BME280;3488;42.616;23.350;2022-10-16T04:57:28;62670.66;;;6.51;100.00
6899;BME280;3488;42.616;23.350;2022-10-16T04:59:55;62675.81;;;6.56;100.00
6899;BME280;3488;42.616;23.350;2022-10-16T05:02:23;62682.03;;;6.62;100.00
6899;BME280;3488;42.616;23.350;2022-10-16T05:04:50;62688.19;;;6.68;100.00
6899;BME280;3488;42.616;23.350;2022-10-16T05:07:17;62691.81;;;6.72;100.00
6899;BME280;3488;42.616;23.350;2022-10-16T05:09:44;62697.50;;;6.77;100.00
6899;BME280;3488;42.616;23.350;2022-10-16T05:12:11;62713.47;;;6.93;100.00
6899;BME280;3488;42.616;23.350;2022-10-16T05:14:38;62714.00;;;6.93;100.00
6899;BME280;3488;42.616;23.350;2022-10-16T05:17:04;62718.69;;;7.00;100.00
6899;BME280;3488;42.616;23.350;2022-10-16T05:19:33;62723.84;;;7.06;100.00
6899;BME280;3488;42.616;23.350;2022-10-16T05:22:00;62737.63;;;7.12;100.00
6899;BME280;3488;42.616;23.350;2022-10-16T05:24:27;62734.16;;;7.16;100.00
6899;BME280;3488;42.616;23.350;2022-10-16T05:26:53;62750.09;;;7.29;100.00
6899;BME280;3488;42.616;23.350;2022-10-16T05:29:20;62760.94;;;7.39;100.00
6899;BME280;3488;42.616;23.350;2022-10-16T05:31:50;62765.59;;;7.44;100.00
6899;BME280;3488;42.616;23.350;2022-10-16T05:34:17;62773.84;;;7.52;100.00
6899;BME280;3488;42.616;23.350;2022-10-16T05:36:45;62774.31;;;7.50;100.00
6899;BME280;3488;42.616;23.350;2022-10-16T05:39:13;62774.38;;;7.52;100.00
6899;BME280;3488;42.616;23.350;2022-10-16T05:41:40;62794.91;;;7.67;100.00
6899;BME280;3488;42.616;23.350;2022-10-16T05:44:07;62811.00;;;7.88;100.00
6899;BME280;3488;42.616;23.350;2022-10-16T05:46:34;62828.03;;;8.04;100.00
6899;BME280;3488;42.616;23.350;2022-10-16T05:49:01;62835.72;;;8.09;100.00
6899;BME280;3488;42.616;23.350;2022-10-16T05:51:28;62817.19;;;7.94;100.00
6899;BME280;3488;42.616;23.350;2022-10-16T05:53:56;62831.66;;;8.08;100.00
6899;BME280;3488;42.616;23.350;2022-10-16T05:56:23;62817.69;;;7.92;100.00
6899;BME280;3488;42.616;23.350;2022-10-16T05:58:50;62829.00;;;8.00;100.00
6899;BME280;3488;42.616;23.350;2022-10-16T06:01:18;62835.19;;;8.06;100.00
6899;BME280;3488;42.616;23.350;2022-10-16T06:03:46;62843.47;;;8.17;100.00
6899;BME280;3488;42.616;23.350;2022-10-16T06:06:14;62856.41;;;8.30;100.00
6899;BME280;3488;42.616;23.350;2022-10-16T06:08:42;62843.53;;;8.19;100.00
6899;BME280;3488;42.616;23.350;2022-10-16T06:11:14;62861.06;;;8.34;100.00
6899;BME280;3488;42.616;23.350;2022-10-16T06:13:43;62875.00;;;8.48;100.00
6899;BME280;3488;42.616;23.350;2022-10-16T06:16:11;62880.75;;;8.56;100.00
6899;BME280;3488;42.616;23.350;2022-10-16T06:18:38;62887.00;;;8.64;100.00
6899;BME280;3488;42.616;23.350;2022-10-16T06:21:07;62891.00;;;8.61;100.00
6899;BME280;3488;42.616;23.350;2022-10-16T06:23:35;62903.41;;;8.75;100.00
6899;BME280;3488;42.616;23.350;2022-10-16T06:26:06;62911.72;;;8.86;100.00
6899;BME280;3488;42.616;23.350;2022-10-16T06:28:35;62911.69;;;8.83;100.00
6899;BME280;3488;42.616;23.350;2022-10-16T06:31:03;62906.09;;;8.83;100.00
6899;BME280;3488;42.616;23.350;2022-10-16T06:33:30;62913.25;;;8.85;100.00
6899;BME280;3488;42.616;23.350;2022-10-16T06:36:01;62909.09;;;8.81;100.00
6899;BME280;3488;42.616;23.350;2022-10-16T06:38:29;62913.28;;;8.87;100.00
6899;BME280;3488;42.616;23.350;2022-10-16T06:40:56;62926.25;;;9.02;100.00
6899;BME280;3488;42.616;23.350;2022-10-16T06:43:22;62932.91;;;9.06;100.00
6899;BME280;3488;42.616;23.350;2022-10-16T06:45:55;62958.16;;;9.26;100.00
6899;BME280;3488;42.616;23.350;2022-10-16T06:48:22;62957.69;;;9.28;100.00
6899;BME280;3488;42.616;23.350;2022-10-16T06:50:56;62952.56;;;9.25;100.00
6899;BME280;3488;42.616;23.350;2022-10-16T06:53:23;62959.81;;;9.32;100.00
6899;BME280;3488;42.616;23.350;2022-10-16T06:55:50;62967.09;;;9.42;100.00
6899;BME280;3488;42.616;23.350;2022-10-16T06:58:17;62989.22;;;9.59;100.00
6899;BME280;3488;42.616;23.350;2022-10-16T07:00:44;63009.41;;;9.78;100.00
6899;BME280;3488;42.616;23.350;2022-10-16T07:03:13;63022.78;;;9.89;100.00
6899;BME280;3488;42.616;23.350;2022-10-16T07:05:40;63031.69;;;10.02;100.00
6899;BME280;3488;42.616;23.350;2022-10-16T07:08:08;63048.16;;;10.13;100.00
6899;BME280;3488;42.616;23.350;2022-10-16T07:10:35;63063.22;;;10.30;100.00
6899;BME280;3488;42.616;23.350;2022-10-16T07:13:02;63077.75;;;10.47;100.00
6899;BME280;3488;42.616;23.350;2022-10-16T07:15:29;63083.00;;;10.57;100.00
6899;BME280;3488;42.616;23.350;2022-10-16T07:17:56;63104.00;;;10.65;100.00
6899;BME280;3488;42.616;23.350;2022-10-16T07:20:24;63105.16;;;10.74;100.00
6899;BME280;3488;42.616;23.350;2022-10-16T07:22:51;63116.00;;;10.82;100.00
6899;BME280;3488;42.616;23.350;2022-10-16T07:25:19;63140.28;;;11.03;100.00
6899;BME280;3488;42.616;23.350;2022-10-16T07:27:46;63151.28;;;11.21;100.00
6899;BME280;3488;42.616;23.350;2022-10-16T07:30:13;63151.72;;;11.16;100.00
6899;BME280;3488;42.616;23.350;2022-10-16T07:32:39;63164.09;;;11.26;100.00
6899;BME280;3488;42.616;23.350;2022-10-16T07:35:07;63145.47;;;11.08;100.00
6899;BME280;3488;42.616;23.350;2022-10-16T07:37:35;63122.69;;;10.86;100.00
6899;BME280;3488;42.616;23.350;2022-10-16T07:40:02;63134.16;;;11.02;100.00
6899;BME280;3488;42.616;23.350;2022-10-16T07:42:29;63147.09;;;11.14;100.00
6899;BME280;3488;42.616;23.350;2022-10-16T07:44:56;63161.50;;;11.23;99.83
6899;BME280;3488;42.616;23.350;2022-10-16T07:47:23;63167.88;;;11.37;100.00
6899;BME280;3488;42.616;23.350;2022-10-16T07:49:50;63186.88;;;11.45;98.52
6899;BME280;3488;42.616;23.350;2022-10-16T07:52:17;63190.09;;;11.56;98.67
6899;BME280;3488;42.616;23.350;2022-10-16T07:54:45;63200.41;;;11.63;96.98
6899;BME280;3488;42.616;23.350;2022-10-16T07:57:12;63217.00;;;11.80;95.49
6899;BME280;3488;42.616;23.350;2022-10-16T07:59:44;63220.72;;;11.88;94.36
6899;BME280;3488;42.616;23.350;2022-10-16T08:02:11;63199.84;;;11.60;94.87
6899;BME280;3488;42.616;23.350;2022-10-16T08:04:38;63222.72;;;11.88;94.34
6899;BME280;3488;42.616;23.350;2022-10-16T08:07:06;63211.81;;;11.75;93.56
6899;BME280;3488;42.616;23.350;2022-10-16T08:09:33;63242.41;;;12.04;94.51
6899;BME280;3488;42.616;23.350;2022-10-16T08:12:02;63263.59;;;12.22;91.86
6899;BME280;3488;42.616;23.350;2022-10-16T08:14:29;63263.66;;;12.27;90.36
6899;BME280;3488;42.616;23.350;2022-10-16T08:16:56;63271.38;;;12.30;91.53
6899;BME280;3488;42.616;23.350;2022-10-16T08:19:23;63281.78;;;12.42;91.44
6899;BME280;3488;42.616;23.350;2022-10-16T08:21:50;63283.91;;;12.49;90.05
6899;BME280;3488;42.616;23.350;2022-10-16T08:24:17;63295.84;;;12.61;91.26
6899;BME280;3488;42.616;23.350;2022-10-16T08:26:43;63320.69;;;12.82;90.16
6899;BME280;3488;42.616;23.350;2022-10-16T08:29:13;63319.63;;;12.79;88.60
6899;BME280;3488;42.616;23.350;2022-10-16T08:31:40;63333.16;;;12.95;87.62
6899;BME280;3488;42.616;23.350;2022-10-16T08:34:07;63363.16;;;13.19;88.84
6899;BME280;3488;42.616;23.350;2022-10-16T08:36:34;63365.78;;;13.21;84.50
6899;BME280;3488;42.616;23.350;2022-10-16T08:39:01;63384.97;;;13.40;80.47
6899;BME280;3488;42.616;23.350;2022-10-16T08:47:44;63456.66;;;14.14;74.07
6899;BME280;3488;42.616;23.350;2022-10-16T08:50:14;63477.44;;;14.34;72.68
6899;BME280;3488;42.616;23.350;2022-10-16T08:52:44;63479.44;;;14.31;64.36
6899;BME280;3488;42.616;23.350;2022-10-16T08:55:24;63483.69;;;14.43;65.56
6899;BME280;3488;42.616;23.350;2022-10-16T08:57:54;63506.44;;;14.57;62.20
6899;BME280;3488;42.616;23.350;2022-10-16T09:00:21;63517.38;;;14.68;60.02
6899;BME280;3488;42.616;23.350;2022-10-16T09:02:53;63520.53;;;14.73;61.68
6899;BME280;3488;42.616;23.350;2022-10-16T09:08:23;63538.78;;;14.96;62.01
6899;BME280;3488;42.616;23.350;2022-10-16T09:10:57;63541.81;;;14.94;61.27
6899;BME280;3488;42.616;23.350;2022-10-16T09:13:29;63528.28;;;14.81;58.25
6899;BME280;3488;42.616;23.350;2022-10-16T09:16:04;63543.91;;;14.96;56.73
6899;BME280;3488;42.616;23.350;2022-10-16T09:18:44;63546.47;;;14.98;58.06
6899;BME280;3488;42.616;23.350;2022-10-16T09:21:18;63567.75;;;15.17;59.09
6899;BME280;3488;42.616;23.350;2022-10-16T09:23:46;63566.19;;;15.15;55.29
6899;BME280;3488;42.616;23.350;2022-10-16T09:26:15;63559.50;;;15.14;55.30
6899;BME280;3488;42.616;23.350;2022-10-16T09:28:43;63557.91;;;15.10;55.89
6899;BME280;3488;42.616;23.350;2022-10-16T09:31:15;63563.13;;;15.17;57.03
6899;BME280;3488;42.616;23.350;2022-10-16T09:33:48;63549.13;;;15.03;54.85
6899;BME280;3488;42.616;23.350;2022-10-16T09:36:16;63561.56;;;15.16;56.36
6899;BME280;3488;42.616;23.350;2022-10-16T09:38:44;63584.41;;;15.35;55.49
6899;BME280;3488;42.616;23.350;2022-10-16T09:41:18;63589.69;;;15.43;55.35
6899;BME280;3488;42.616;23.350;2022-10-16T09:43:51;63607.81;;;15.58;54.02
6899;BME280;3488;42.616;23.350;2022-10-16T09:46:26;63575.03;;;15.24;53.38
6899;BME280;3488;42.616;23.350;2022-10-16T09:48:56;63597.38;;;15.43;51.98
6899;BME280;3488;42.616;23.350;2022-10-16T09:51:26;63571.94;;;15.23;51.94
6899;BME280;3488;42.616;23.350;2022-10-16T09:53:59;63580.25;;;15.31;52.03
6899;BME280;3488;42.616;23.350;2022-10-16T09:56:28;63585.97;;;15.37;53.53
6899;BME280;3488;42.616;23.350;2022-10-16T09:58:56;63589.16;;;15.42;52.74
6899;BME280;3488;42.616;23.350;2022-10-16T10:01:30;63583.41;;;15.37;53.36
6899;BME280;3488;42.616;23.350;2022-10-16T10:03:59;63597.91;;;15.46;52.25
6899;BME280;3488;42.616;23.350;2022-10-16T10:06:29;63607.81;;;15.58;51.28
6899;BME280;3488;42.616;23.350;2022-10-16T10:09:00;63591.25;;;15.47;51.75
6899;BME280;3488;42.616;23.350;2022-10-16T10:11:39;63620.31;;;15.70;52.86
6899;BME280;3488;42.616;23.350;2022-10-16T10:17:16;63547.56;;;15.02;51.83
6899;BME280;3488;42.616;23.350;2022-10-16T10:19:48;63535.63;;;14.90;53.19
6899;BME280;3488;42.616;23.350;2022-10-16T10:22:18;63556.38;;;15.08;52.85
6899;BME280;3488;42.616;23.350;2022-10-16T10:24:55;63571.91;;;15.21;52.86
6899;BME280;3488;42.616;23.350;2022-10-16T10:27:28;63567.31;;;15.21;52.12
6899;BME280;3488;42.616;23.350;2022-10-16T10:30:01;63595.84;;;15.44;50.56
6899;BME280;3488;42.616;23.350;2022-10-16T10:32:38;63597.47;;;15.50;49.52
6899;BME280;3488;42.616;23.350;2022-10-16T10:35:17;63620.31;;;15.70;51.15
6899;BME280;3488;42.616;23.350;2022-10-16T10:38:03;63635.34;;;15.82;48.41
6899;BME280;3488;42.616;23.350;2022-10-16T10:40:43;63635.38;;;15.84;48.20
6899;BME280;3488;42.616;23.350;2022-10-16T10:43:23;63648.91;;;15.97;48.59
6899;BME280;3488;42.616;23.350;2022-10-16T10:45:58;63661.91;;;16.10;48.52
6899;BME280;3488;42.616;23.350;2022-10-16T10:48:43;63676.94;;;16.22;48.06
6899;BME280;3488;42.616;23.350;2022-10-16T10:51:20;63703.50;;;16.50;48.91
6899;BME280;3488;42.616;23.350;2022-10-16T10:54:06;63719.69;;;16.68;49.24
6899;BME280;3488;42.616;23.350;2022-10-16T10:56:43;63742.03;;;16.87;47.34
6899;BME280;3488;42.616;23.350;2022-10-16T10:59:40;63698.84;;;16.48;47.76
6899;BME280;3488;42.616;23.350;2022-10-16T11:02:18;63711.28;;;16.55;48.38
6899;BME280;3488;42.616;23.350;2022-10-16T11:07:52;63720.66;;;16.64;47.25
6899;BME280;3488;42.616;23.350;2022-10-16T11:10:25;63706.13;;;16.55;47.05
6899;BME280;3488;42.616;23.350;2022-10-16T11:12:58;63715.41;;;16.57;46.26
6899;BME280;3488;42.616;23.350;2022-10-16T11:15:30;63704.03;;;16.51;46.63
6899;BME280;3488;42.616;23.350;2022-10-16T11:18:04;63723.78;;;16.67;46.66
6899;BME280;3488;42.616;23.350;2022-10-16T11:20:34;63749.31;;;16.94;45.72
6899;BME280;3488;42.616;23.350;2022-10-16T11:23:08;63748.28;;;16.96;44.85
6899;BME280;3488;42.616;23.350;2022-10-16T11:25:39;63751.41;;;16.99;43.85
6899;BME280;3488;42.616;23.350;2022-10-16T11:28:11;63768.03;;;17.12;42.34
6899;BME280;3488;42.616;23.350;2022-10-16T11:30:44;63753.00;;;17.03;43.09
6899;BME280;3488;42.616;23.350;2022-10-16T11:33:28;63768.53;;;17.10;43.43
6899;BME280;3488;42.616;23.350;2022-10-16T11:36:01;63777.94;;;17.22;42.34
6899;BME280;3488;42.616;23.350;2022-10-16T11:38:34;63775.31;;;17.19;42.55
6899;BME280;3488;42.616;23.350;2022-10-16T11:41:12;63751.44;;;17.01;43.04
6899;BME280;3488;42.616;23.350;2022-10-16T11:43:43;63781.53;;;17.23;41.47
6899;BME280;3488;42.616;23.350;2022-10-16T11:46:14;63794.03;;;17.35;40.98
6899;BME280;3488;42.616;23.350;2022-10-16T11:49:04;63799.28;;;17.43;40.17
6899;BME280;3488;42.616;23.350;2022-10-16T11:51:39;63795.09;;;17.39;39.52
6899;BME280;3488;42.616;23.350;2022-10-16T11:54:16;63790.44;;;17.37;39.70
6899;BME280;3488;42.616;23.350;2022-10-16T11:56:48;63794.56;;;17.38;40.68
6899;BME280;3488;42.616;23.350;2022-10-16T11:59:23;63821.66;;;17.62;40.68
6899;BME280;3488;42.616;23.350;2022-10-16T12:02:03;63836.31;;;17.83;39.45
6899;BME280;3488;42.616;23.350;2022-10-16T12:04:43;63836.28;;;17.81;38.44
6899;BME280;3488;42.616;23.350;2022-10-16T12:07:27;63827.94;;;17.70;38.95
6899;BME280;3488;42.616;23.350;2022-10-16T12:10:19;63814.91;;;17.58;39.25
6899;BME280;3488;42.616;23.350;2022-10-16T12:12:46;63824.31;;;17.69;38.91
6899;BME280;3488;42.616;23.350;2022-10-16T12:15:21;63819.06;;;17.62;39.27
6899;BME280;3488;42.616;23.350;2022-10-16T12:17:50;63828.44;;;17.71;38.84
6899;BME280;3488;42.616;23.350;2022-10-16T12:20:35;63824.28;;;17.67;39.34
6899;BME280;3488;42.616;23.350;2022-10-16T12:23:05;63814.91;;;17.58;38.81
6899;BME280;3488;42.616;23.350;2022-10-16T12:25:36;63809.72;;;17.55;39.19
6899;BME280;3488;42.616;23.350;2022-10-16T12:28:20;63819.63;;;17.65;38.90
6899;BME280;3488;42.616;23.350;2022-10-16T12:31:10;63841.41;;;17.78;38.75
6899;BME280;3488;42.616;23.350;2022-10-16T12:33:39;63847.69;;;17.87;39.05
6899;BME280;3488;42.616;23.350;2022-10-16T12:36:12;63847.72;;;17.89;40.02
6899;BME280;3488;42.616;23.350;2022-10-16T12:38:47;63859.69;;;18.01;40.13
6899;BME280;3488;42.616;23.350;2022-10-16T12:41:24;63863.88;;;18.05;39.82
6899;BME280;3488;42.616;23.350;2022-10-16T12:43:52;63875.81;;;18.14;38.85
6899;BME280;3488;42.616;23.350;2022-10-16T12:46:33;63868.53;;;18.09;39.17
6899;BME280;3488;42.616;23.350;2022-10-16T12:49:30;63870.09;;;18.08;39.13
6899;BME280;3488;42.616;23.350;2022-10-16T12:51:59;63873.22;;;18.14;39.90
6899;BME280;3488;42.616;23.350;2022-10-16T12:54:28;63886.22;;;18.24;37.68
6899;BME280;3488;42.616;23.350;2022-10-16T12:57:17;63857.59;;;17.99;38.48
6899;BME280;3488;42.616;23.350;2022-10-16T12:59:55;63848.78;;;17.93;38.64
6899;BME280;3488;42.616;23.350;2022-10-16T13:02:45;63832.09;;;17.74;39.39
6899;BME280;3488;42.616;23.350;2022-10-16T13:05:33;63823.69;;;17.61;39.73
6899;BME280;3488;42.616;23.350;2022-10-16T13:08:20;63800.88;;;17.47;39.78
6899;BME280;3488;42.616;23.350;2022-10-16T13:10:58;63815.44;;;17.61;39.85
6899;BME280;3488;42.616;23.350;2022-10-16T13:13:59;63840.44;;;17.82;41.37
6899;BME280;3488;42.616;23.350;2022-10-16T13:16:34;63871.16;;;18.14;39.17
6899;BME280;3488;42.616;23.350;2022-10-16T13:19:16;63902.97;;;18.45;39.62
6899;BME280;3488;42.616;23.350;2022-10-16T13:21:51;63932.09;;;18.68;38.71
6899;BME280;3488;42.616;23.350;2022-10-16T13:24:30;63940.00;;;18.83;37.31
6899;BME280;3488;42.616;23.350;2022-10-16T13:27:07;63943.63;;;18.87;38.43
6899;BME280;3488;42.616;23.350;2022-10-16T13:29:41;63955.59;;;18.96;39.13
6899;BME280;3488;42.616;23.350;2022-10-16T13:32:10;63976.38;;;19.08;39.73
6899;BME280;3488;42.616;23.350;2022-10-16T13:34:44;63981.13;;;19.18;38.24
6899;BME280;3488;42.616;23.350;2022-10-16T13:37:17;63986.84;;;19.23;36.73
6899;BME280;3488;42.616;23.350;2022-10-16T13:39:45;63997.81;;;19.34;37.55
6899;BME280;3488;42.616;23.350;2022-10-16T13:42:18;64000.97;;;19.39;37.86
6899;BME280;3488;42.616;23.350;2022-10-16T13:44:51;64003.56;;;19.39;38.44